createdAt,value
2019-03-15T00:00:28.871Z,3.20
2019-03-15T00:01:38.818Z,8.63
2019-03-15T00:02:47.118Z,2.30
2019-03-15T00:03:55.138Z,1.10
2019-03-15T00:05:04.093Z,1.07
2019-03-15T00:06:12.258Z,1.30
2019-03-15T00:07:20.135Z,0.97
2019-03-15T00:08:27.980Z,2.90
2019-03-15T00:09:35.676Z,8.53
2019-03-15T00:10:43.501Z,8.13
2019-03-15T00:11:51.493Z,0.87
2019-03-15T00:12:59.499Z,0.90
2019-03-15T00:14:08.115Z,0.97
2019-03-15T00:15:16.496Z,1.10
2019-03-15T00:16:24.564Z,0.90
2019-03-15T00:17:32.614Z,7.90
2019-03-15T00:18:40.890Z,6.33
2019-03-15T00:19:48.952Z,0.90
2019-03-15T00:20:57.086Z,1.13
2019-03-15T00:22:05.469Z,0.80
2019-03-15T00:23:13.485Z,1.17
2019-03-15T00:24:21.446Z,0.83
2019-03-15T00:25:29.688Z,2.90
2019-03-15T00:26:37.778Z,7.10
2019-03-15T00:27:45.769Z,6.53
2019-03-15T00:28:53.969Z,1.50
2019-03-15T00:30:01.862Z,1.20
2019-03-15T00:31:09.864Z,1.00
2019-03-15T00:32:17.886Z,0.90
2019-03-15T00:33:25.854Z,1.07
2019-03-15T00:34:33.839Z,7.33
2019-03-15T00:35:41.833Z,7.10
2019-03-15T00:36:49.884Z,6.03
2019-03-15T00:37:57.924Z,1.00
2019-03-15T00:39:07.398Z,0.80
2019-03-15T00:40:16.745Z,1.00
2019-03-15T00:41:24.800Z,0.80
2019-03-15T00:42:32.849Z,6.73
2019-03-15T00:43:40.864Z,8.10
2019-03-15T00:44:48.800Z,3.43
2019-03-15T00:45:56.761Z,1.00
2019-03-15T00:47:04.591Z,1.60
2019-03-15T00:48:12.717Z,0.80
2019-03-15T00:49:20.471Z,0.90
2019-03-15T00:50:28.425Z,0.83
2019-03-15T00:51:36.511Z,7.73
2019-03-15T00:52:44.720Z,7.23
2019-03-15T00:53:54.333Z,0.70
2019-03-15T00:55:02.352Z,1.40
2019-03-15T00:56:11.530Z,3.17
2019-03-15T00:57:19.693Z,1.00
2019-03-15T00:58:27.572Z,1.00
2019-03-15T00:59:35.762Z,6.27
2019-03-15T01:00:43.647Z,6.63
2019-03-15T01:01:51.773Z,0.93
2019-03-15T01:02:59.597Z,1.10
2019-03-15T01:04:09.434Z,2.17
2019-03-15T01:05:18.177Z,1.20
2019-03-15T01:06:25.987Z,1.20
2019-03-15T01:07:33.962Z,5.67
2019-03-15T01:08:41.887Z,8.27
2019-03-15T01:09:49.687Z,5.50
2019-03-15T01:10:57.681Z,1.20
2019-03-15T01:12:05.617Z,1.30
2019-03-15T01:13:13.965Z,1.07
2019-03-15T01:14:22.092Z,1.00
2019-03-15T01:15:30.236Z,1.37
2019-03-15T01:16:38.301Z,8.13
2019-03-15T01:17:46.152Z,7.27
2019-03-15T01:18:54.259Z,2.17
2019-03-15T01:20:02.840Z,1.30
2019-03-15T01:21:10.957Z,1.97
2019-03-15T01:22:19.071Z,1.37
2019-03-15T01:23:26.890Z,1.17
2019-03-15T01:24:34.691Z,3.87
2019-03-15T01:25:42.498Z,7.00
2019-03-15T01:26:50.284Z,7.03
2019-03-15T01:27:58.490Z,1.50
2019-03-15T01:29:06.480Z,2.40
2019-03-15T01:30:14.470Z,1.50
2019-03-15T01:31:22.308Z,1.27
2019-03-15T01:32:30.244Z,1.07
2019-03-15T01:33:38.029Z,7.40
2019-03-15T01:34:45.937Z,8.03
2019-03-15T01:35:53.853Z,2.30
2019-03-15T01:37:01.749Z,1.20
2019-03-15T01:38:09.697Z,1.03
2019-03-15T01:39:17.713Z,1.03
2019-03-15T01:40:25.594Z,0.80
2019-03-15T01:41:33.483Z,0.90
2019-03-15T01:42:41.271Z,8.37
2019-03-15T01:43:49.238Z,7.63
2019-03-15T01:44:57.394Z,0.90
2019-03-15T01:46:05.300Z,0.73
2019-03-15T01:47:13.502Z,1.70
2019-03-15T01:48:21.681Z,0.83
2019-03-15T01:49:29.886Z,0.60
2019-03-15T01:50:37.849Z,4.83
2019-03-15T01:51:45.663Z,7.73
2019-03-15T01:52:54.008Z,4.33
2019-03-15T01:54:01.761Z,0.80
2019-03-15T01:55:10.158Z,0.70
2019-03-15T01:56:18.052Z,3.90
2019-03-15T01:57:25.863Z,1.10
2019-03-15T01:58:33.807Z,0.73
2019-03-15T01:59:42.014Z,5.90
2019-03-15T02:00:49.716Z,5.90
2019-03-15T02:01:57.310Z,1.00
2019-03-15T02:03:05.402Z,1.33
2019-03-15T02:04:13.196Z,1.20
2019-03-15T02:05:21.178Z,1.33
2019-03-15T02:06:29.186Z,1.63
2019-03-15T02:07:37.276Z,2.17
2019-03-15T02:08:45.187Z,7.90
2019-03-15T02:09:53.169Z,7.83
2019-03-15T02:11:01.254Z,1.07
2019-03-15T02:12:09.249Z,1.10
2019-03-15T02:13:16.999Z,0.97
2019-03-15T02:14:25.031Z,0.87
2019-03-15T02:15:32.945Z,0.90
2019-03-15T02:16:40.974Z,7.20
2019-03-15T02:17:49.072Z,8.23
2019-03-15T02:18:57.018Z,2.30
2019-03-15T02:20:07.384Z,1.07
2019-03-15T02:21:15.200Z,1.10
2019-03-15T02:22:23.244Z,1.23
2019-03-15T02:23:31.048Z,0.80
2019-03-15T02:24:38.927Z,3.13
2019-03-15T02:25:47.024Z,8.53
2019-03-15T02:26:54.822Z,7.67
2019-03-15T02:28:02.958Z,1.20
2019-03-15T02:29:11.107Z,1.73
2019-03-15T02:30:19.210Z,1.33
2019-03-15T02:31:27.204Z,1.10
2019-03-15T02:32:35.025Z,0.90
2019-03-15T02:33:42.814Z,6.70
2019-03-15T02:34:50.678Z,7.83
2019-03-15T02:35:58.557Z,1.93
2019-03-15T02:37:07.003Z,1.00
2019-03-15T02:38:15.312Z,1.10
2019-03-15T02:39:23.271Z,1.17
2019-03-15T02:40:30.955Z,0.80
2019-03-15T02:41:38.931Z,1.43
2019-03-15T02:42:46.836Z,8.03
2019-03-15T02:43:54.886Z,6.57
2019-03-15T02:45:02.858Z,1.00
2019-03-15T02:46:10.712Z,1.30
2019-03-15T02:47:19.432Z,1.07
2019-03-15T02:48:27.736Z,1.07
2019-03-15T02:49:36.299Z,1.00
2019-03-15T02:50:44.427Z,6.90
2019-03-15T02:51:52.222Z,7.80
2019-03-15T02:53:00.125Z,3.83
2019-03-15T02:54:07.887Z,1.30
2019-03-15T02:55:15.956Z,1.57
2019-03-15T02:56:24.302Z,1.50
2019-03-15T02:57:32.253Z,1.13
2019-03-15T02:58:40.288Z,1.97
2019-03-15T02:59:48.302Z,7.93
2019-03-15T03:00:56.247Z,8.00
2019-03-15T03:02:04.285Z,1.33
2019-03-15T03:03:12.111Z,2.23
2019-03-15T03:04:20.222Z,0.90
2019-03-15T03:05:28.406Z,1.47
2019-03-15T03:06:36.400Z,1.33
2019-03-15T03:07:44.934Z,5.93
2019-03-15T03:08:53.020Z,7.97
2019-03-15T03:10:01.733Z,1.30
2019-03-15T03:11:10.343Z,1.47
2019-03-15T03:12:18.718Z,1.23
2019-03-15T03:13:26.554Z,1.20
2019-03-15T03:14:34.428Z,0.87
2019-03-15T03:15:42.521Z,2.27
2019-03-15T03:16:50.455Z,9.33
2019-03-15T03:17:58.566Z,8.23
2019-03-15T03:19:06.557Z,0.90
2019-03-15T03:20:14.508Z,0.93
2019-03-15T03:21:22.696Z,1.57
2019-03-15T03:22:30.657Z,1.20
2019-03-15T03:23:38.994Z,1.37
2019-03-15T03:24:47.192Z,7.47
2019-03-15T03:25:55.650Z,8.13
2019-03-15T03:27:03.397Z,0.90
2019-03-15T03:28:11.289Z,1.00
2019-03-15T03:29:19.945Z,0.87
2019-03-15T03:30:28.221Z,1.00
2019-03-15T03:31:36.024Z,1.03
2019-03-15T03:32:44.522Z,2.43
2019-03-15T03:33:52.772Z,8.63
2019-03-15T03:35:00.968Z,7.87
2019-03-15T03:36:09.054Z,1.20
2019-03-15T03:37:17.141Z,0.90
2019-03-15T03:38:25.280Z,1.00
2019-03-15T03:39:34.404Z,1.10
2019-03-15T03:40:42.605Z,1.13
2019-03-15T03:41:50.507Z,7.37
2019-03-15T03:42:58.279Z,7.70
2019-03-15T03:44:06.432Z,0.90
2019-03-15T03:45:14.396Z,1.00
2019-03-15T03:46:22.410Z,1.00
2019-03-15T03:47:32.692Z,1.97
2019-03-15T03:48:40.171Z,0.87
2019-03-15T03:49:48.010Z,8.00
2019-03-15T03:50:55.999Z,3.73
2019-03-15T03:52:03.849Z,2.20
2019-03-15T03:53:11.826Z,1.57
2019-03-15T03:54:19.840Z,1.30
2019-03-15T03:55:27.988Z,0.90
2019-03-15T03:56:35.852Z,1.00
2019-03-15T03:57:43.675Z,0.80
2019-03-15T03:58:51.634Z,8.20
2019-03-15T03:59:59.737Z,8.63
2019-03-15T04:01:07.831Z,1.37
2019-03-15T04:02:16.305Z,1.07
2019-03-15T04:03:24.702Z,1.20
2019-03-15T04:04:32.799Z,1.10
2019-03-15T04:05:40.814Z,1.47
2019-03-15T04:06:48.708Z,5.77
2019-03-15T04:07:56.985Z,8.77
2019-03-15T04:09:06.722Z,5.20
2019-03-15T04:10:14.919Z,1.30
2019-03-15T04:11:23.173Z,0.90
2019-03-15T04:12:31.319Z,7.43
2019-03-15T04:13:39.377Z,1.13
2019-03-15T04:14:47.512Z,2.37
2019-03-15T04:15:55.696Z,6.50
2019-03-15T04:17:03.809Z,6.30
2019-03-15T04:18:11.509Z,1.10
2019-03-15T04:19:19.589Z,1.23
2019-03-15T04:20:27.504Z,0.80
2019-03-15T04:21:35.389Z,1.23
2019-03-15T04:22:43.445Z,0.93
2019-03-15T04:23:51.278Z,7.30
2019-03-15T04:24:59.567Z,8.37
2019-03-15T04:26:07.409Z,3.90
2019-03-15T04:27:15.353Z,1.43
2019-03-15T04:28:23.574Z,1.30
2019-03-15T04:29:31.729Z,1.00
2019-03-15T04:30:39.534Z,1.53
2019-03-15T04:31:47.748Z,2.00
2019-03-15T04:32:55.746Z,10.73
2019-03-15T04:34:03.827Z,7.77
2019-03-15T04:35:12.029Z,1.97
2019-03-15T04:36:19.916Z,2.70
2019-03-15T04:37:28.220Z,1.63
2019-03-15T04:38:36.319Z,2.33
2019-03-15T04:39:44.743Z,2.23
2019-03-15T04:40:53.235Z,8.23
2019-03-15T04:42:01.384Z,9.90
2019-03-15T04:43:09.521Z,2.73
2019-03-15T04:44:17.747Z,1.77
2019-03-15T04:45:26.229Z,2.73
2019-03-15T04:46:34.332Z,2.03
2019-03-15T04:47:43.636Z,2.23
2019-03-15T04:48:52.109Z,7.60
2019-03-15T04:49:59.954Z,11.27
2019-03-15T04:51:08.376Z,7.20
2019-03-15T04:52:16.457Z,2.87
2019-03-15T04:53:24.342Z,2.07
2019-03-15T04:54:32.352Z,1.73
2019-03-15T04:55:40.332Z,2.77
2019-03-15T04:56:48.290Z,2.33
2019-03-15T04:57:56.180Z,10.83
2019-03-15T04:59:04.241Z,10.70
2019-03-15T05:00:15.483Z,2.63
2019-03-15T05:01:23.233Z,1.53
2019-03-15T05:02:31.180Z,1.90
2019-03-15T05:03:39.239Z,2.67
2019-03-15T05:04:47.674Z,11.43
2019-03-15T05:06:02.973Z,8.93
2019-03-15T05:07:07.145Z,8.63
2019-03-15T05:08:15.018Z,1.93
2019-03-15T05:09:22.925Z,3.40
2019-03-15T05:10:31.124Z,2.93
2019-03-15T05:11:39.128Z,2.63
2019-03-15T05:12:47.038Z,2.10
2019-03-15T05:13:55.014Z,10.17
2019-03-15T05:15:03.181Z,11.53
2019-03-15T05:16:11.310Z,4.07
2019-03-15T05:17:19.247Z,1.87
2019-03-15T05:18:26.979Z,1.60
2019-03-15T05:19:35.221Z,1.60
2019-03-15T05:20:43.181Z,1.27
2019-03-15T05:21:51.380Z,1.93
2019-03-15T05:22:59.435Z,147.43
2019-03-15T05:24:07.452Z,146.60
2019-03-15T05:25:15.468Z,90.40
2019-03-15T05:26:23.282Z,98.80
2019-03-15T05:27:31.478Z,115.10
2019-03-15T05:28:39.442Z,128.63
2019-03-15T05:29:47.570Z,113.40
2019-03-15T05:30:55.552Z,120.93
2019-03-15T05:32:03.433Z,142.57
2019-03-15T05:33:11.404Z,115.63
2019-03-15T05:34:19.379Z,106.60
2019-03-15T05:35:27.208Z,109.40
2019-03-15T05:36:35.610Z,127.90
2019-03-15T05:37:43.593Z,135.30
2019-03-15T05:38:51.497Z,152.63
2019-03-15T05:39:59.387Z,166.13
2019-03-15T05:41:07.044Z,142.53
2019-03-15T05:42:15.063Z,133.07
2019-03-15T05:43:23.046Z,141.67
2019-03-15T05:44:31.430Z,131.83
2019-03-15T05:45:39.424Z,127.30
2019-03-15T05:46:47.368Z,112.17
2019-03-15T05:47:56.605Z,125.67
2019-03-15T05:49:04.738Z,136.33
2019-03-15T05:50:14.081Z,93.30
2019-03-15T05:51:22.127Z,111.17
2019-03-15T05:52:30.208Z,110.43
2019-03-15T05:53:38.526Z,118.93
2019-03-15T05:54:46.630Z,119.47
2019-03-15T05:55:55.008Z,127.87
2019-03-15T05:57:02.896Z,169.17
2019-03-15T05:58:10.956Z,159.63
2019-03-15T05:59:19.514Z,118.17
2019-03-15T06:00:27.692Z,119.17
2019-03-15T06:01:35.956Z,83.30
2019-03-15T06:02:43.994Z,43.80
2019-03-15T06:03:52.003Z,2.97
2019-03-15T06:04:59.981Z,10.77
2019-03-15T06:06:07.953Z,10.57
2019-03-15T06:07:16.347Z,4.23
2019-03-15T06:08:27.471Z,2.37
2019-03-15T06:09:34.521Z,2.27
2019-03-15T06:10:42.426Z,14.43
2019-03-15T06:11:50.725Z,5.60
2019-03-15T06:12:58.771Z,6.20
2019-03-15T06:14:07.223Z,9.23
2019-03-15T06:15:15.822Z,3.87
2019-03-15T06:16:24.131Z,2.50
2019-03-15T06:17:32.118Z,2.97
2019-03-15T06:18:40.525Z,2.50
2019-03-15T06:19:48.443Z,6.77
2019-03-15T06:20:56.531Z,3.57
2019-03-15T06:22:04.910Z,11.37
2019-03-15T06:23:12.804Z,10.87
2019-03-15T06:24:21.640Z,2.53
2019-03-15T06:25:29.927Z,2.00
2019-03-15T06:26:39.268Z,2.57
2019-03-15T06:27:47.331Z,2.87
2019-03-15T06:28:55.541Z,2.80
2019-03-15T06:30:04.560Z,10.33
2019-03-15T06:31:12.975Z,14.40
2019-03-15T06:32:20.847Z,2.67
2019-03-15T06:33:29.046Z,2.23
2019-03-15T06:34:39.416Z,3.00
2019-03-15T06:35:46.782Z,2.77
2019-03-15T06:36:54.794Z,4.23
2019-03-15T06:38:03.235Z,11.13
2019-03-15T06:39:11.137Z,11.10
2019-03-15T06:40:19.397Z,2.80
2019-03-15T06:41:28.208Z,3.67
2019-03-15T06:42:36.507Z,9.80
2019-03-15T06:43:44.447Z,4.17
2019-03-15T06:44:57.934Z,4.37
2019-03-15T06:46:02.304Z,8.67
2019-03-15T06:47:10.541Z,10.53
2019-03-15T06:48:18.321Z,5.50
2019-03-15T06:49:26.681Z,3.63
2019-03-15T06:50:35.069Z,4.83
2019-03-15T06:51:43.224Z,14.23
2019-03-15T06:52:51.595Z,3.73
2019-03-15T06:54:10.926Z,3.97
2019-03-15T06:55:10.378Z,8.80
2019-03-15T06:56:18.992Z,5.77
2019-03-15T06:57:27.133Z,3.17
2019-03-15T06:58:37.157Z,4.60
2019-03-15T06:59:45.223Z,3.60
2019-03-15T07:00:54.704Z,3.50
2019-03-15T07:02:03.090Z,10.87
2019-03-15T07:03:11.505Z,11.80
2019-03-15T07:04:19.560Z,9.37
2019-03-15T07:05:27.854Z,3.83
2019-03-15T07:06:35.954Z,5.27
2019-03-15T07:07:44.265Z,5.50
2019-03-15T07:08:52.154Z,5.23
2019-03-15T07:10:00.448Z,6.37
2019-03-15T07:11:08.495Z,13.77
2019-03-15T07:12:17.636Z,11.90
2019-03-15T07:13:25.748Z,3.93
2019-03-15T07:14:33.983Z,4.33
2019-03-15T07:15:44.350Z,4.10
2019-03-15T07:16:51.903Z,2.87
2019-03-15T07:18:00.048Z,5.63
2019-03-15T07:19:09.156Z,16.33
2019-03-15T07:20:18.291Z,14.90
2019-03-15T07:21:26.573Z,4.80
2019-03-15T07:22:34.532Z,16.50
2019-03-15T07:23:42.626Z,7.07
2019-03-15T07:24:50.968Z,4.50
2019-03-15T07:26:15.585Z,3.83
2019-03-15T07:27:42.692Z,10.10
2019-03-15T07:29:18.749Z,3.67
2019-03-15T07:30:47.041Z,10.23
2019-03-15T07:32:24.113Z,12.33
2019-03-15T07:33:42.316Z,3.73
2019-03-15T07:34:54.137Z,2.67
2019-03-15T07:36:02.077Z,3.17
2019-03-15T07:37:10.716Z,4.90
2019-03-15T07:38:18.663Z,6.77
2019-03-15T07:39:26.923Z,11.83
2019-03-15T07:40:35.162Z,10.27
2019-03-15T07:41:43.126Z,4.63
2019-03-15T07:42:51.031Z,3.70
2019-03-15T07:43:59.471Z,3.87
2019-03-15T07:45:12.906Z,3.63
2019-03-15T07:46:20.989Z,8.33
2019-03-15T07:47:28.721Z,10.90
2019-03-15T07:48:36.839Z,6.63
2019-03-15T07:49:44.934Z,5.50
2019-03-15T07:50:52.895Z,3.47
2019-03-15T07:52:03.788Z,4.23
2019-03-15T07:53:11.333Z,3.40
2019-03-15T07:54:19.667Z,6.07
2019-03-15T07:55:27.966Z,11.37
2019-03-15T07:56:36.237Z,7.93
2019-03-15T07:57:44.153Z,3.83
2019-03-15T07:58:52.209Z,2.27
2019-03-15T08:00:00.384Z,2.83
2019-03-15T08:01:08.367Z,3.10
2019-03-15T08:02:16.600Z,3.20
2019-03-15T08:03:24.700Z,9.27
2019-03-15T08:04:32.486Z,11.00
2019-03-15T08:05:40.773Z,3.70
2019-03-15T08:06:49.100Z,2.80
2019-03-15T08:07:57.107Z,3.30
2019-03-15T08:09:07.271Z,3.37
2019-03-15T08:10:16.167Z,4.70
2019-03-15T08:11:24.151Z,9.73
2019-03-15T08:12:32.445Z,10.03
2019-03-15T08:13:40.526Z,4.00
2019-03-15T08:14:48.454Z,2.97
2019-03-15T08:15:56.445Z,3.60
2019-03-15T08:17:04.529Z,2.43
2019-03-15T08:18:12.588Z,4.40
2019-03-15T08:19:21.944Z,6.03
2019-03-15T08:20:30.001Z,9.43
2019-03-15T08:21:38.159Z,8.70
2019-03-15T08:22:46.546Z,3.07
2019-03-15T08:23:54.776Z,4.17
2019-03-15T08:25:02.856Z,2.23
2019-03-15T08:26:11.071Z,2.97
2019-03-15T08:27:19.207Z,3.10
2019-03-15T08:28:27.307Z,12.00
2019-03-15T08:29:36.540Z,11.93
2019-03-15T08:30:44.807Z,2.50
2019-03-15T08:31:52.966Z,2.47
2019-03-15T08:33:10.107Z,2.37
2019-03-15T08:34:11.021Z,3.60
2019-03-15T08:35:19.293Z,2.63
2019-03-15T08:36:27.500Z,12.53
2019-03-15T08:37:35.800Z,9.53
2019-03-15T08:38:47.760Z,2.77
2019-03-15T08:39:53.649Z,3.00
2019-03-15T08:41:01.939Z,8.67
2019-03-15T08:42:09.977Z,3.30
2019-03-15T08:43:18.327Z,3.90
2019-03-15T08:44:26.809Z,7.73
2019-03-15T08:45:35.051Z,7.93
2019-03-15T08:46:43.037Z,3.93
2019-03-15T08:47:51.387Z,2.53
2019-03-15T08:48:59.817Z,2.77
2019-03-15T08:50:14.998Z,2.87
2019-03-15T08:51:22.240Z,7.00
2019-03-15T08:52:30.235Z,11.17
2019-03-15T08:53:38.279Z,10.73
2019-03-15T08:54:46.998Z,2.40
2019-03-15T08:55:54.990Z,2.63
2019-03-15T08:57:03.213Z,2.03
2019-03-15T08:58:15.355Z,2.03
2019-03-15T08:59:21.224Z,3.80
2019-03-15T09:00:29.724Z,9.90
2019-03-15T09:01:38.061Z,12.27
2019-03-15T09:02:46.457Z,2.97
2019-03-15T09:03:54.517Z,2.27
2019-03-15T09:05:02.783Z,2.30
2019-03-15T09:06:10.939Z,9.17
2019-03-15T09:07:19.224Z,2.57
2019-03-15T09:08:27.521Z,8.73
2019-03-15T09:09:36.066Z,7.07
2019-03-15T09:10:44.536Z,2.90
2019-03-15T09:11:52.628Z,2.40
2019-03-15T09:13:00.836Z,4.80
2019-03-15T09:14:08.984Z,6.50
2019-03-15T09:15:17.395Z,2.90
2019-03-15T09:16:25.485Z,6.43
2019-03-15T09:17:33.683Z,9.60
2019-03-15T09:18:41.778Z,6.17
2019-03-15T09:19:49.932Z,4.30
2019-03-15T09:20:58.224Z,1.90
2019-03-15T09:22:06.470Z,2.87
2019-03-15T09:23:15.039Z,1.90
2019-03-15T09:24:23.143Z,3.20
2019-03-15T09:25:31.429Z,9.90
2019-03-15T09:26:39.391Z,10.33
2019-03-15T09:27:47.587Z,2.90
2019-03-15T09:28:55.704Z,2.60
2019-03-15T09:30:04.062Z,2.27
2019-03-15T09:31:11.848Z,1.83
2019-03-15T09:32:20.019Z,2.90
2019-03-15T09:33:28.064Z,6.63
2019-03-15T09:34:35.913Z,9.47
2019-03-15T09:35:44.290Z,3.97
2019-03-15T09:36:52.635Z,1.97
2019-03-15T09:38:00.835Z,1.93
2019-03-15T09:39:09.084Z,2.57
2019-03-15T09:40:20.288Z,2.80
2019-03-15T09:41:33.504Z,8.03
2019-03-15T09:42:38.169Z,9.77
2019-03-15T09:43:46.622Z,1.63
2019-03-15T09:44:54.468Z,2.50
2019-03-15T09:46:02.542Z,4.50
2019-03-15T09:47:10.908Z,2.27
2019-03-15T09:48:19.556Z,1.50
2019-03-15T09:49:27.612Z,7.60
2019-03-15T09:50:50.088Z,9.63
2019-03-15T09:51:45.330Z,1.43
2019-03-15T09:52:53.492Z,1.93
2019-03-15T09:54:01.522Z,7.60
2019-03-15T09:55:11.949Z,2.97
2019-03-15T09:56:20.062Z,2.13
2019-03-15T09:57:28.190Z,8.07
2019-03-15T09:58:36.178Z,11.43
2019-03-15T09:59:44.414Z,5.77
2019-03-15T10:00:52.476Z,2.80
2019-03-15T10:02:00.790Z,3.37
2019-03-15T10:03:21.586Z,2.93
2019-03-15T10:04:19.394Z,4.07
2019-03-15T10:05:27.433Z,6.73
2019-03-15T10:06:35.640Z,9.50
2019-03-15T10:07:44.122Z,6.23
2019-03-15T10:08:52.545Z,2.53
2019-03-15T10:10:12.957Z,2.57
2019-03-15T10:11:10.758Z,2.13
2019-03-15T10:12:19.153Z,2.20
2019-03-15T10:13:27.228Z,4.37
2019-03-15T10:14:35.185Z,9.30
2019-03-15T10:15:43.109Z,7.33
2019-03-15T10:16:51.548Z,1.87
2019-03-15T10:17:59.562Z,2.50
2019-03-15T10:19:07.763Z,2.50
2019-03-15T10:20:16.508Z,4.30
2019-03-15T10:21:24.545Z,2.80
2019-03-15T10:22:33.076Z,9.60
2019-03-15T10:23:40.953Z,9.07
2019-03-15T10:24:49.088Z,3.03
2019-03-15T10:25:56.957Z,2.37
2019-03-15T10:27:05.361Z,3.37
2019-03-15T10:28:13.302Z,5.03
2019-03-15T10:29:21.316Z,2.60
2019-03-15T10:30:29.782Z,6.93
2019-03-15T10:31:37.734Z,7.27
2019-03-15T10:32:45.848Z,4.80
2019-03-15T10:33:54.066Z,1.40
2019-03-15T10:35:02.500Z,5.03
2019-03-15T10:36:10.819Z,2.43
2019-03-15T10:37:19.276Z,1.80
2019-03-15T10:38:27.478Z,2.20
2019-03-15T10:39:35.369Z,6.03
2019-03-15T10:40:43.705Z,6.77
2019-03-15T10:41:51.667Z,2.53
2019-03-15T10:42:59.621Z,2.03
2019-03-15T10:44:07.854Z,1.93
2019-03-15T10:45:15.975Z,3.00
2019-03-15T10:46:24.165Z,1.90
2019-03-15T10:47:32.343Z,5.33
2019-03-15T10:48:40.307Z,6.67
2019-03-15T10:49:48.338Z,5.57
2019-03-15T10:50:56.532Z,2.57
2019-03-15T10:52:04.611Z,2.40
2019-03-15T10:53:12.498Z,1.50
2019-03-15T10:54:20.624Z,1.80
2019-03-15T10:55:28.705Z,1.67
2019-03-15T10:56:36.804Z,5.30
2019-03-15T10:57:44.659Z,5.43
2019-03-15T10:58:52.911Z,8.20
2019-03-15T11:00:01.099Z,1.87
2019-03-15T11:01:09.189Z,2.20
2019-03-15T11:02:17.579Z,1.73
2019-03-15T11:03:25.879Z,2.50
2019-03-15T11:04:33.808Z,5.97
2019-03-15T11:05:41.782Z,7.57
2019-03-15T11:06:49.872Z,2.13
2019-03-15T11:07:57.982Z,1.83
2019-03-15T11:09:07.975Z,1.57
2019-03-15T11:10:16.047Z,3.23
2019-03-15T11:11:24.233Z,2.33
2019-03-15T11:12:32.439Z,15.07
2019-03-15T11:13:40.815Z,7.77
2019-03-15T11:14:48.799Z,5.57
2019-03-15T11:15:56.818Z,3.03
2019-03-15T11:17:04.907Z,2.67
2019-03-15T11:18:13.205Z,3.17
2019-03-15T11:19:21.326Z,2.60
2019-03-15T11:20:29.403Z,4.27
2019-03-15T11:21:37.714Z,11.83
2019-03-15T11:22:45.709Z,11.00
2019-03-15T11:23:53.796Z,4.00
2019-03-15T11:25:01.690Z,2.57
2019-03-15T11:26:13.770Z,3.47
2019-03-15T11:27:19.474Z,2.77
2019-03-15T11:28:27.475Z,4.47
2019-03-15T11:29:35.470Z,10.37
2019-03-15T11:30:43.409Z,10.73
2019-03-15T11:31:51.379Z,3.37
2019-03-15T11:32:59.799Z,2.20
2019-03-15T11:34:07.617Z,2.87
2019-03-15T11:35:15.640Z,1.87
2019-03-15T11:36:23.797Z,3.50
2019-03-15T11:37:31.988Z,3.50
2019-03-15T11:38:39.920Z,6.30
2019-03-15T11:39:47.973Z,6.23
2019-03-15T11:40:55.944Z,2.70
2019-03-15T11:42:03.960Z,1.63
2019-03-15T11:43:11.977Z,1.83
2019-03-15T11:44:20.232Z,2.43
2019-03-15T11:45:28.562Z,3.60
2019-03-15T11:46:36.857Z,5.60
2019-03-15T11:48:02.046Z,5.30
2019-03-15T11:48:54.599Z,2.00
2019-03-15T11:50:02.587Z,2.20
2019-03-15T11:51:10.799Z,1.53
2019-03-15T11:52:18.907Z,1.90
2019-03-15T11:53:26.718Z,2.37
2019-03-15T11:54:34.867Z,4.57
2019-03-15T11:55:42.859Z,6.63
2019-03-15T11:56:51.054Z,5.27
2019-03-15T11:57:59.096Z,2.43
2019-03-15T11:59:07.172Z,2.47
2019-03-15T12:00:21.758Z,2.87
2019-03-15T12:01:29.722Z,3.23
2019-03-15T12:02:37.844Z,8.23
2019-03-15T12:03:53.064Z,10.10
2019-03-15T12:04:55.663Z,3.50
2019-03-15T12:06:03.672Z,3.87
2019-03-15T12:07:11.927Z,2.57
2019-03-15T12:08:19.824Z,3.70
2019-03-15T12:09:27.723Z,3.83
2019-03-15T12:10:35.907Z,6.23
2019-03-15T12:11:43.972Z,10.60
2019-03-15T12:12:52.196Z,7.17
2019-03-15T12:14:00.107Z,12.67
2019-03-15T12:15:11.840Z,3.60
2019-03-15T12:16:19.803Z,2.73
2019-03-15T12:17:27.827Z,3.13
2019-03-15T12:18:35.867Z,5.37
2019-03-15T12:19:44.928Z,11.40
2019-03-15T12:20:53.317Z,9.43
2019-03-15T12:22:06.431Z,2.63
2019-03-15T12:23:11.123Z,3.23
2019-03-15T12:24:19.527Z,2.80
2019-03-15T12:25:27.641Z,2.87
2019-03-15T12:26:40.463Z,6.17
2019-03-15T12:27:45.589Z,13.57
2019-03-15T12:28:53.752Z,8.50
2019-03-15T12:30:01.960Z,3.10
2019-03-15T12:31:09.977Z,3.63
2019-03-15T12:32:18.170Z,3.33
2019-03-15T12:33:26.039Z,2.10
2019-03-15T12:34:33.967Z,3.47
2019-03-15T12:35:42.030Z,12.40
2019-03-15T12:36:50.026Z,8.57
2019-03-15T12:37:57.968Z,6.53
2019-03-15T12:39:08.149Z,3.03
2019-03-15T12:40:19.742Z,3.10
2019-03-15T12:41:27.893Z,3.10
2019-03-15T12:42:36.343Z,3.43
2019-03-15T12:43:44.776Z,9.83
2019-03-15T12:44:53.029Z,10.33
2019-03-15T12:46:01.128Z,2.97
2019-03-15T12:47:09.118Z,2.93
2019-03-15T12:48:16.861Z,2.87
2019-03-15T12:49:25.743Z,2.97
2019-03-15T12:50:33.966Z,3.97
2019-03-15T12:51:42.414Z,10.17
2019-03-15T12:52:50.754Z,9.97
2019-03-15T12:53:58.746Z,3.17
2019-03-15T12:55:10.242Z,2.90
2019-03-15T12:56:18.637Z,5.47
2019-03-15T12:57:26.621Z,3.27
2019-03-15T12:58:34.613Z,4.57
2019-03-15T12:59:42.685Z,8.83
2019-03-15T13:00:50.581Z,8.40
2019-03-15T13:01:58.479Z,3.13
2019-03-15T13:03:06.591Z,2.37
2019-03-15T13:04:14.689Z,3.60
2019-03-15T13:05:23.273Z,2.87
2019-03-15T13:06:31.479Z,4.23
2019-03-15T13:07:39.738Z,5.43
2019-03-15T13:08:48.396Z,8.27
2019-03-15T13:09:56.456Z,5.93
2019-03-15T13:11:04.780Z,3.83
2019-03-15T13:12:12.898Z,3.37
2019-03-15T13:13:21.291Z,2.93
2019-03-15T13:14:29.240Z,4.13
2019-03-15T13:15:37.389Z,3.17
2019-03-15T13:16:45.726Z,9.90
2019-03-15T13:17:53.976Z,9.97
2019-03-15T13:19:02.301Z,3.40
2019-03-15T13:20:15.655Z,4.30
2019-03-15T13:21:24.024Z,3.20
2019-03-15T13:22:32.350Z,3.00
2019-03-15T13:23:40.260Z,5.83
2019-03-15T13:24:48.235Z,9.63
2019-03-15T13:25:56.196Z,8.93
2019-03-15T13:27:07.666Z,3.50
2019-03-15T13:28:13.880Z,3.00
2019-03-15T13:29:22.249Z,2.73
2019-03-15T13:30:30.011Z,3.67
2019-03-15T13:31:38.093Z,4.00
2019-03-15T13:32:46.418Z,10.63
2019-03-15T13:33:54.817Z,9.67
2019-03-15T13:35:02.944Z,3.17
2019-03-15T13:36:10.857Z,3.30
2019-03-15T13:37:18.855Z,3.20
2019-03-15T13:38:26.973Z,12.77
2019-03-15T13:39:35.021Z,2.67
2019-03-15T13:40:42.947Z,8.47
2019-03-15T13:41:50.902Z,9.67
2019-03-15T13:42:58.896Z,4.63
2019-03-15T13:44:06.976Z,4.17
2019-03-15T13:45:16.548Z,3.97
2019-03-15T13:46:24.537Z,3.50
2019-03-15T13:47:32.418Z,2.90
2019-03-15T13:48:41.278Z,4.87
2019-03-15T13:49:49.153Z,12.67
2019-03-15T13:50:57.253Z,9.23
2019-03-15T13:52:05.236Z,3.57
2019-03-15T13:53:13.199Z,3.00
2019-03-15T13:54:21.159Z,3.20
2019-03-15T13:55:29.399Z,4.87
2019-03-15T13:56:37.323Z,6.30
2019-03-15T13:57:45.341Z,9.60
2019-03-15T13:58:57.500Z,10.40
2019-03-15T14:00:03.456Z,2.23
2019-03-15T14:01:11.467Z,3.03
2019-03-15T14:02:19.732Z,7.97
2019-03-15T14:03:28.041Z,3.73
2019-03-15T14:04:36.444Z,4.90
2019-03-15T14:05:44.501Z,9.67
2019-03-15T14:06:52.817Z,9.67
2019-03-15T14:08:11.220Z,4.43
2019-03-15T14:09:10.879Z,2.43
2019-03-15T14:10:19.306Z,2.07
2019-03-15T14:11:27.561Z,5.43
2019-03-15T14:12:35.593Z,4.67
2019-03-15T14:13:43.679Z,7.27
2019-03-15T14:14:51.850Z,11.13
2019-03-15T14:16:01.551Z,7.17
2019-03-15T14:17:09.988Z,2.97
2019-03-15T14:18:21.300Z,3.90
2019-03-15T14:19:27.856Z,3.27
2019-03-15T14:20:35.912Z,7.53
2019-03-15T14:21:43.836Z,9.30
2019-03-15T14:22:51.926Z,8.93
2019-03-15T14:24:00.099Z,7.43
2019-03-15T14:25:19.139Z,3.03
2019-03-15T14:26:27.073Z,2.60
2019-03-15T14:27:37.807Z,1.87
2019-03-15T14:28:47.567Z,7.20
2019-03-15T14:29:55.779Z,9.90
2019-03-15T14:31:04.290Z,2.60
2019-03-15T14:32:12.219Z,2.80
2019-03-15T14:33:20.165Z,5.27
2019-03-15T14:34:28.558Z,2.73
2019-03-15T14:35:36.868Z,3.00
2019-03-15T14:36:45.099Z,7.10
2019-03-15T14:37:53.597Z,9.40
2019-03-15T14:39:01.942Z,7.90
2019-03-15T14:40:12.978Z,3.30
2019-03-15T14:41:21.043Z,2.70
2019-03-15T14:42:29.554Z,2.83
2019-03-15T14:43:38.153Z,5.90
2019-03-15T14:44:46.123Z,8.70
2019-03-15T14:45:54.283Z,10.53
2019-03-15T14:47:02.536Z,3.50
2019-03-15T14:48:10.531Z,4.97
2019-03-15T14:49:18.547Z,2.93
2019-03-15T14:50:27.255Z,3.23
2019-03-15T14:51:35.252Z,2.67
2019-03-15T14:52:43.752Z,3.73
2019-03-15T14:53:51.728Z,11.17
2019-03-15T14:55:00.651Z,8.63
2019-03-15T14:56:08.548Z,3.03
2019-03-15T14:57:16.665Z,2.30
2019-03-15T14:58:24.951Z,3.43
2019-03-15T14:59:33.293Z,2.83
2019-03-15T15:00:41.851Z,6.97
2019-03-15T15:01:50.107Z,8.63
2019-03-15T15:02:58.150Z,7.97
2019-03-15T15:04:06.272Z,2.80
2019-03-15T15:05:14.535Z,4.90
2019-03-15T15:06:22.782Z,3.03